首页
METAR-TAF:

METAR-TAF

机场 :

拉默爾德, 伊朗

纬度: 27-22-22N, 经度: 53-11-20E, 海拔: 408米

当前天气观测

该预报发布于14分钟前的07:00 UTC
静风
温度 23°C
湿度 38%
气压 1016 hPa
能見度: 8000

METAR: OISR 290700Z 00000KT 8000 NSC 23/08 Q1015 A3000 NOSIG

时间: 10:44 (07:14 UTC)


TAF: 丢失

超过4000个机场的气象观测和天气预报(METAR&TAF报告)。

可查询的气象台以黄色和红色小点在地图上表示。

将鼠标移到小点上方,可查看气象台名称。

然后点击查看天气观测和预报。

如需切换地图:点击带黑十字的绿色按钮放大地图;点击带横线的绿色按钮缩小地图;或者点击绿色箭头查看邻近地区的地图。


METAR-TAF: